createdAt,value
2019-03-25T00:00:41.539Z,7.96
2019-03-25T00:03:10.201Z,7.92
2019-03-25T00:05:37.580Z,7.92
2019-03-25T00:08:04.697Z,7.87
2019-03-25T00:10:31.752Z,7.84
2019-03-25T00:12:58.794Z,7.82
2019-03-25T00:15:25.842Z,7.78
2019-03-25T00:17:53.226Z,7.78
2019-03-25T00:20:20.589Z,7.75
2019-03-25T00:22:47.636Z,7.73
2019-03-25T00:25:15.008Z,7.72
2019-03-25T00:27:42.342Z,7.67
2019-03-25T00:30:10.367Z,7.63
2019-03-25T00:32:37.656Z,7.61
2019-03-25T00:35:04.968Z,7.57
2019-03-25T00:37:32.248Z,7.53
2019-03-25T00:39:59.543Z,7.52
2019-03-25T00:42:26.905Z,7.48
2019-03-25T00:44:54.213Z,7.44
2019-03-25T00:47:21.612Z,7.41
2019-03-25T00:49:48.968Z,7.40
2019-03-25T00:52:16.015Z,7.37
2019-03-25T00:54:50.046Z,7.35
2019-03-25T00:57:12.449Z,7.29
2019-03-25T00:59:39.502Z,7.23
2019-03-25T01:02:06.852Z,7.17
2019-03-25T01:04:34.208Z,7.16
2019-03-25T01:07:01.268Z,7.16
2019-03-25T01:09:28.302Z,7.14
2019-03-25T01:11:55.656Z,7.14
2019-03-25T01:14:22.698Z,7.13
2019-03-25T01:16:49.839Z,7.12
2019-03-25T01:19:17.212Z,7.14
2019-03-25T01:21:44.584Z,7.09
2019-03-25T01:24:11.649Z,7.08
2019-03-25T01:26:38.690Z,7.05
2019-03-25T01:29:05.743Z,7.03
2019-03-25T01:31:32.799Z,6.96
2019-03-25T01:34:01.234Z,6.93
2019-03-25T01:36:28.294Z,6.89
2019-03-25T01:38:55.644Z,6.84
2019-03-25T01:41:22.709Z,6.84
2019-03-25T01:43:49.994Z,6.83
2019-03-25T01:46:17.423Z,6.77
2019-03-25T01:48:44.755Z,6.74
2019-03-25T01:51:12.056Z,6.64
2019-03-25T01:53:39.096Z,6.52
2019-03-25T01:56:06.510Z,6.41
2019-03-25T01:58:33.867Z,6.35
2019-03-25T02:01:01.240Z,6.26
2019-03-25T02:03:28.527Z,6.14
2019-03-25T02:05:55.888Z,6.01
2019-03-25T02:08:23.182Z,5.88
2019-03-25T02:10:50.246Z,5.74
2019-03-25T02:13:17.609Z,5.61
2019-03-25T02:15:44.946Z,5.63
2019-03-25T02:18:12.321Z,5.65
2019-03-25T02:20:39.380Z,5.68
2019-03-25T02:23:06.993Z,5.65
2019-03-25T02:25:34.222Z,5.63
2019-03-25T02:28:01.530Z,5.64
2019-03-25T02:30:28.812Z,5.68
2019-03-25T02:32:55.862Z,5.67
2019-03-25T02:35:23.173Z,5.66
2019-03-25T02:37:50.233Z,5.70
2019-03-25T02:40:17.574Z,5.72
2019-03-25T02:42:44.933Z,5.76
2019-03-25T02:45:12.280Z,5.75
2019-03-25T02:47:39.342Z,5.73
2019-03-25T02:50:06.633Z,5.73
2019-03-25T02:52:33.676Z,5.75
2019-03-25T02:55:00.711Z,5.73
2019-03-25T02:57:27.763Z,5.70
2019-03-25T02:59:54.807Z,5.73
2019-03-25T03:02:22.129Z,5.76
2019-03-25T03:04:49.166Z,5.74
2019-03-25T03:07:16.302Z,5.70
2019-03-25T03:09:43.602Z,5.66
2019-03-25T03:12:10.654Z,5.66
2019-03-25T03:14:38.003Z,5.59
2019-03-25T03:17:05.324Z,5.50
2019-03-25T03:19:32.606Z,5.42
2019-03-25T03:21:59.949Z,5.36
2019-03-25T03:24:28.347Z,5.24
2019-03-25T03:26:56.474Z,5.14
2019-03-25T03:29:23.504Z,5.08
2019-03-25T03:31:50.816Z,5.02
2019-03-25T03:34:17.863Z,4.97
2019-03-25T03:36:45.161Z,4.94
2019-03-25T03:39:12.425Z,4.92
2019-03-25T03:41:39.731Z,4.88
2019-03-25T03:44:07.005Z,4.85
2019-03-25T03:46:34.300Z,4.87
2019-03-25T03:49:01.592Z,4.82
2019-03-25T03:51:28.623Z,4.77
2019-03-25T03:53:55.923Z,4.75
2019-03-25T03:56:22.964Z,4.68
2019-03-25T03:58:50.528Z,4.65
2019-03-25T04:01:17.769Z,4.56
2019-03-25T04:03:44.818Z,4.52
2019-03-25T04:06:12.826Z,4.51
2019-03-25T04:08:39.881Z,4.45
2019-03-25T04:11:06.921Z,4.40
2019-03-25T04:13:33.978Z,4.32
2019-03-25T04:16:01.568Z,4.22
2019-03-25T04:18:28.937Z,4.09
2019-03-25T04:20:57.112Z,3.97
2019-03-25T04:23:24.162Z,3.92
2019-03-25T04:25:51.484Z,3.87
2019-03-25T04:28:18.782Z,3.85
2019-03-25T04:30:46.113Z,3.82
2019-03-25T04:33:13.411Z,3.83
2019-03-25T04:35:40.826Z,3.79
2019-03-25T04:38:07.881Z,3.77
2019-03-25T04:40:34.914Z,3.73
2019-03-25T04:43:02.045Z,3.71
2019-03-25T04:45:29.078Z,3.65
2019-03-25T04:47:56.451Z,3.65
2019-03-25T04:50:23.822Z,3.67
2019-03-25T04:52:51.177Z,3.70
2019-03-25T04:55:18.214Z,3.66
2019-03-25T04:57:45.268Z,3.57
2019-03-25T05:00:12.612Z,3.45
2019-03-25T05:02:39.664Z,3.30
2019-03-25T05:05:07.032Z,3.21
2019-03-25T05:07:34.090Z,3.12
2019-03-25T05:10:01.421Z,3.05
2019-03-25T05:12:28.997Z,2.94
2019-03-25T05:14:56.034Z,2.88
2019-03-25T05:17:23.091Z,2.82
2019-03-25T05:19:50.126Z,2.78
2019-03-25T05:27:32.056Z,2.73
2019-03-25T05:29:59.405Z,2.79
2019-03-25T05:32:28.009Z,2.99
2019-03-25T05:34:55.066Z,3.41
2019-03-25T05:37:22.357Z,3.96
2019-03-25T05:39:49.770Z,4.53
2019-03-25T05:42:16.830Z,5.14
2019-03-25T05:44:43.867Z,5.86
2019-03-25T05:47:10.897Z,6.67
2019-03-25T05:49:37.946Z,7.37
2019-03-25T05:52:04.987Z,7.98
2019-03-25T05:54:32.043Z,8.36
2019-03-25T05:57:02.812Z,8.74
2019-03-25T05:59:28.488Z,9.46
2019-03-25T06:01:55.527Z,10.15
2019-03-25T06:04:22.911Z,10.56
2019-03-25T06:06:52.060Z,10.73
2019-03-25T06:09:18.706Z,11.03
2019-03-25T06:11:46.083Z,11.55
2019-03-25T06:14:13.457Z,11.90
2019-03-25T06:16:40.793Z,12.14
2019-03-25T06:19:07.929Z,12.43
2019-03-25T06:21:35.214Z,12.65
2019-03-25T06:24:02.552Z,12.90
2019-03-25T06:26:30.559Z,12.90
2019-03-25T06:28:57.859Z,12.83
2019-03-25T06:31:25.151Z,13.03
2019-03-25T06:33:52.498Z,13.37
2019-03-25T06:36:19.838Z,13.13
2019-03-25T06:38:47.199Z,13.05
2019-03-25T06:41:14.247Z,12.58
2019-03-25T06:43:41.297Z,12.85
2019-03-25T06:46:08.339Z,13.55
2019-03-25T06:48:35.709Z,13.65
2019-03-25T06:51:03.052Z,13.84
2019-03-25T06:53:30.088Z,14.35
2019-03-25T06:55:57.147Z,15.05
2019-03-25T06:58:24.194Z,14.82
2019-03-25T07:00:51.258Z,14.57
2019-03-25T07:03:18.820Z,15.06
2019-03-25T07:05:45.882Z,15.83
2019-03-25T07:08:12.919Z,16.24
2019-03-25T07:10:41.047Z,16.01
2019-03-25T07:13:08.086Z,15.72
2019-03-25T07:15:35.473Z,16.26
2019-03-25T07:18:03.033Z,16.79
2019-03-25T07:20:30.086Z,16.89
2019-03-25T07:22:57.130Z,17.04
2019-03-25T07:25:24.484Z,15.88
2019-03-25T07:27:51.838Z,14.16
2019-03-25T07:30:18.891Z,12.33
2019-03-25T07:32:45.936Z,11.06
2019-03-25T07:35:12.990Z,10.39
2019-03-25T07:37:40.342Z,9.82
2019-03-25T07:40:07.395Z,10.19
2019-03-25T07:42:35.660Z,10.82
2019-03-25T07:45:02.791Z,11.26
2019-03-25T07:47:30.165Z,11.35
2019-03-25T07:49:57.219Z,11.21
2019-03-25T07:52:24.569Z,10.90
2019-03-25T07:54:51.944Z,10.57
2019-03-25T07:57:18.982Z,10.48
2019-03-25T07:59:46.049Z,10.54
2019-03-25T08:02:15.227Z,11.49
2019-03-25T08:04:42.503Z,11.87
2019-03-25T08:07:09.552Z,11.84
2019-03-25T08:09:36.911Z,12.02
2019-03-25T08:12:03.977Z,12.34
2019-03-25T08:14:31.285Z,11.79
2019-03-25T08:16:58.634Z,11.23
2019-03-25T08:19:25.746Z,10.38
2019-03-25T08:21:53.061Z,9.62
2019-03-25T08:24:20.389Z,8.85
2019-03-25T08:26:47.444Z,8.30
2019-03-25T08:29:14.813Z,8.12
2019-03-25T08:31:42.107Z,8.09
2019-03-25T08:34:09.141Z,8.03
2019-03-25T08:36:36.189Z,7.98
2019-03-25T08:39:03.474Z,7.75
2019-03-25T08:41:31.593Z,7.63
2019-03-25T08:43:58.928Z,7.69
2019-03-25T08:46:26.280Z,8.08
2019-03-25T08:48:53.325Z,8.07
2019-03-25T08:51:20.682Z,8.23
2019-03-25T08:53:47.720Z,8.32
2019-03-25T08:56:14.817Z,8.48
2019-03-25T08:58:41.802Z,8.17
2019-03-25T09:01:09.201Z,8.00
2019-03-25T09:03:36.231Z,8.72
2019-03-25T09:06:03.587Z,9.42
2019-03-25T09:08:30.619Z,10.21
2019-03-25T09:10:58.005Z,10.61
2019-03-25T09:13:25.342Z,9.59
2019-03-25T09:15:52.696Z,9.52
2019-03-25T09:18:20.060Z,10.12
2019-03-25T09:20:47.104Z,9.57
2019-03-25T09:23:14.479Z,9.16
2019-03-25T09:25:41.516Z,9.08
2019-03-25T09:28:08.876Z,9.14
2019-03-25T09:30:36.232Z,10.40
2019-03-25T09:33:03.570Z,10.86
2019-03-25T09:35:30.600Z,10.15
2019-03-25T09:37:57.974Z,9.71
2019-03-25T09:40:25.323Z,9.17
2019-03-25T09:42:52.453Z,9.12
2019-03-25T09:45:19.489Z,9.19
2019-03-25T09:47:46.544Z,8.94
2019-03-25T09:50:13.925Z,8.68
2019-03-25T09:52:41.282Z,8.59
2019-03-25T09:55:08.638Z,8.47
2019-03-25T09:57:35.690Z,8.56
2019-03-25T10:00:02.725Z,8.66
2019-03-25T10:02:30.206Z,8.82
2019-03-25T10:04:57.562Z,8.74
2019-03-25T10:07:24.903Z,8.65
2019-03-25T10:09:51.936Z,8.74
2019-03-25T10:12:18.984Z,9.11
2019-03-25T10:14:46.261Z,8.73
2019-03-25T10:17:13.323Z,9.01
2019-03-25T10:19:40.362Z,9.45
2019-03-25T10:22:07.411Z,9.71
2019-03-25T10:24:34.446Z,10.04
2019-03-25T10:27:01.812Z,9.82
2019-03-25T10:29:28.857Z,9.88
2019-03-25T10:31:55.901Z,9.85
2019-03-25T10:34:22.944Z,9.64
2019-03-25T10:36:50.231Z,9.61
2019-03-25T10:39:17.566Z,9.22
2019-03-25T10:41:44.846Z,8.69
2019-03-25T10:44:11.901Z,8.77
2019-03-25T10:46:38.929Z,8.69
2019-03-25T10:49:06.254Z,8.38
2019-03-25T10:51:33.533Z,8.19
2019-03-25T10:54:00.822Z,8.09
2019-03-25T10:56:27.853Z,8.38
2019-03-25T10:58:58.273Z,9.52
2019-03-25T11:01:23.895Z,10.88
2019-03-25T11:03:50.944Z,11.37
2019-03-25T11:06:17.982Z,10.74
2019-03-25T11:08:45.035Z,10.05
2019-03-25T11:11:12.067Z,9.62
2019-03-25T11:13:39.124Z,8.60
2019-03-25T11:16:06.155Z,8.27
2019-03-25T11:18:34.616Z,8.37
2019-03-25T11:21:01.717Z,8.79
2019-03-25T11:23:29.120Z,9.04
2019-03-25T11:25:56.154Z,9.41
2019-03-25T11:28:23.558Z,9.03
2019-03-25T11:30:50.878Z,9.22
2019-03-25T11:33:18.897Z,9.72
2019-03-25T11:35:45.934Z,10.24
2019-03-25T11:38:12.986Z,10.65
2019-03-25T11:40:40.013Z,10.54
2019-03-25T11:43:07.350Z,12.26
2019-03-25T11:45:34.387Z,14.55
2019-03-25T11:48:01.441Z,16.13
2019-03-25T11:50:28.476Z,14.54
2019-03-25T11:52:55.846Z,12.57
2019-03-25T11:55:23.225Z,10.98
2019-03-25T11:57:50.270Z,9.28
2019-03-25T12:00:17.307Z,8.07
2019-03-25T12:02:44.352Z,6.94
2019-03-25T12:05:11.390Z,5.93
2019-03-25T12:07:38.420Z,5.39
2019-03-25T12:10:05.476Z,5.46
2019-03-25T12:12:32.757Z,5.93
2019-03-25T12:15:01.595Z,6.83
2019-03-25T12:17:29.293Z,9.08
2019-03-25T12:19:56.654Z,10.39
2019-03-25T12:22:23.693Z,11.93
2019-03-25T12:24:50.745Z,13.38
2019-03-25T12:27:18.157Z,14.58
2019-03-25T12:29:45.461Z,14.70
2019-03-25T12:32:12.502Z,13.22
2019-03-25T12:34:39.553Z,11.27
2019-03-25T12:37:06.905Z,10.28
2019-03-25T12:39:33.960Z,9.79
2019-03-25T12:42:01.325Z,9.68
2019-03-25T12:44:28.375Z,10.02
2019-03-25T12:46:55.424Z,9.70
2019-03-25T12:49:22.472Z,9.61
2019-03-25T12:51:49.822Z,9.81
2019-03-25T12:54:16.856Z,11.08
2019-03-25T12:56:44.210Z,12.28
2019-03-25T12:59:11.269Z,12.11
2019-03-25T13:01:38.633Z,11.32
2019-03-25T13:04:05.679Z,10.88
2019-03-25T13:06:32.713Z,11.52
2019-03-25T13:09:00.217Z,11.58
2019-03-25T13:11:29.002Z,10.88
2019-03-25T13:13:56.327Z,10.21
2019-03-25T13:16:23.369Z,9.74
2019-03-25T13:18:50.415Z,9.17
2019-03-25T13:21:17.460Z,8.94
2019-03-25T13:23:44.487Z,8.72
2019-03-25T13:26:11.535Z,8.51
2019-03-25T13:28:38.568Z,8.75
2019-03-25T13:31:05.979Z,8.66
2019-03-25T13:33:33.335Z,8.61
2019-03-25T13:36:00.683Z,8.34
2019-03-25T13:38:28.025Z,8.40
2019-03-25T13:40:55.079Z,8.53
2019-03-25T13:43:22.422Z,8.57
2019-03-25T13:45:49.473Z,9.00
2019-03-25T13:48:16.516Z,9.40
2019-03-25T13:50:43.891Z,9.52
2019-03-25T13:53:11.247Z,9.54
2019-03-25T13:55:38.584Z,9.44
2019-03-25T13:58:05.636Z,9.52
2019-03-25T14:00:32.985Z,9.67
2019-03-25T14:03:00.344Z,9.60
2019-03-25T14:05:27.378Z,8.94
2019-03-25T14:07:54.744Z,8.18
2019-03-25T14:10:22.120Z,6.84
2019-03-25T14:12:49.177Z,6.21
2019-03-25T14:15:16.511Z,5.82
2019-03-25T14:17:43.557Z,5.86
2019-03-25T14:20:10.968Z,6.11
2019-03-25T14:22:37.973Z,6.43
2019-03-25T14:25:05.007Z,6.51
2019-03-25T14:27:32.053Z,6.43
2019-03-25T14:29:59.089Z,6.07
2019-03-25T14:32:26.133Z,5.78
2019-03-25T14:34:53.165Z,5.61
2019-03-25T14:37:20.217Z,5.51
2019-03-25T14:39:47.596Z,5.49
2019-03-25T14:42:14.957Z,5.48
2019-03-25T14:44:42.307Z,5.68
2019-03-25T14:47:09.356Z,5.96
2019-03-25T14:49:36.713Z,6.37
2019-03-25T14:52:03.762Z,6.65
2019-03-25T14:54:30.801Z,7.08
2019-03-25T14:56:58.161Z,7.10
2019-03-25T14:59:25.531Z,7.13
2019-03-25T15:01:52.872Z,7.25
2019-03-25T15:04:20.246Z,7.12
2019-03-25T15:06:47.580Z,6.89
2019-03-25T15:09:14.639Z,6.73
2019-03-25T15:11:41.983Z,6.55
2019-03-25T15:14:09.032Z,6.51
2019-03-25T15:16:36.064Z,6.29
2019-03-25T15:19:03.119Z,6.07
2019-03-25T15:21:30.483Z,6.00
2019-03-25T15:23:57.532Z,6.12
2019-03-25T15:26:24.562Z,6.45
2019-03-25T15:28:51.932Z,6.78
2019-03-25T15:31:19.288Z,6.90
2019-03-25T15:33:46.340Z,6.92
2019-03-25T15:36:13.694Z,7.02
2019-03-25T15:38:41.049Z,6.94
2019-03-25T15:41:08.401Z,7.16
2019-03-25T15:43:35.448Z,7.19
2019-03-25T15:46:02.483Z,6.90
2019-03-25T15:48:29.527Z,6.62
2019-03-25T15:50:56.918Z,6.62
2019-03-25T15:53:23.967Z,6.67
2019-03-25T15:55:51.000Z,6.66
2019-03-25T15:58:26.014Z,6.57
2019-03-25T16:00:48.502Z,6.44
2019-03-25T16:03:16.236Z,6.37
2019-03-25T16:05:49.040Z,5.92
2019-03-25T16:08:16.397Z,5.45
2019-03-25T16:10:44.401Z,4.83
2019-03-25T16:13:11.884Z,4.43
2019-03-25T16:15:42.106Z,4.38
2019-03-25T16:18:09.143Z,4.22
2019-03-25T16:20:36.427Z,4.15
2019-03-25T16:23:03.799Z,4.08
2019-03-25T16:25:31.193Z,3.95
2019-03-25T16:28:02.486Z,3.94
2019-03-25T16:30:36.653Z,3.92
2019-03-25T16:33:04.136Z,3.88
2019-03-25T16:35:31.417Z,3.88
2019-03-25T16:37:58.819Z,3.89
2019-03-25T16:40:41.432Z,3.92
2019-03-25T16:43:11.756Z,3.96
2019-03-25T16:45:41.868Z,3.98
2019-03-25T16:50:58.595Z,4.01
2019-03-25T16:53:32.977Z,3.97
2019-03-25T16:56:01.176Z,4.01
2019-03-25T16:58:28.453Z,4.01
2019-03-25T17:00:56.599Z,4.03
2019-03-25T17:03:24.821Z,3.95
2019-03-25T17:08:38.815Z,3.85
2019-03-25T17:11:07.316Z,3.77
2019-03-25T17:13:36.547Z,3.71
2019-03-25T17:16:13.794Z,3.60
2019-03-25T17:18:40.873Z,3.53
2019-03-25T17:21:10.051Z,3.44
2019-03-25T17:23:40.295Z,3.32
2019-03-25T17:26:24.804Z,3.28
2019-03-25T17:31:31.451Z,3.22
2019-03-25T17:33:59.620Z,3.09
2019-03-25T17:36:29.709Z,2.98
2019-03-25T17:47:03.043Z,2.61
2019-03-25T17:49:32.567Z,2.54
2019-03-25T17:52:04.029Z,2.51
2019-03-25T17:54:31.302Z,2.51
2019-03-25T17:57:04.869Z,2.46
2019-03-25T17:59:37.178Z,2.44
2019-03-25T18:02:11.367Z,2.39
2019-03-25T18:04:38.637Z,2.32
2019-03-25T18:07:10.071Z,2.29
2019-03-25T18:09:37.515Z,2.24
2019-03-25T18:12:07.020Z,2.19
2019-03-25T18:14:34.459Z,2.14
2019-03-25T18:17:03.695Z,2.16
2019-03-25T18:19:30.963Z,2.20
2019-03-25T18:22:07.917Z,2.18
2019-03-25T18:24:35.268Z,2.21
2019-03-25T18:27:04.476Z,2.23
2019-03-25T18:29:31.752Z,2.26
2019-03-25T18:32:05.503Z,2.24
2019-03-25T18:37:11.295Z,2.23
2019-03-25T18:45:09.758Z,2.22
2019-03-25T18:47:39.005Z,2.23
2019-03-25T18:52:50.399Z,2.14
2019-03-25T18:55:17.759Z,2.11
2019-03-25T18:57:51.073Z,2.08
2019-03-25T19:05:48.992Z,1.99
2019-03-25T19:08:21.274Z,1.99
2019-03-25T19:10:51.698Z,1.98
2019-03-25T19:13:31.313Z,1.95
2019-03-25T19:15:59.415Z,1.96
2019-03-25T19:18:26.476Z,1.98
2019-03-25T19:20:56.617Z,2.03
2019-03-25T19:23:23.656Z,2.08
2019-03-25T19:28:28.041Z,2.22
2019-03-25T19:30:59.930Z,2.28
2019-03-25T19:33:45.378Z,2.35
2019-03-25T19:38:59.696Z,2.53
2019-03-25T19:44:04.033Z,2.78
2019-03-25T19:46:32.188Z,2.89
2019-03-25T19:49:07.799Z,3.00
2019-03-25T19:51:38.370Z,3.02
2019-03-25T19:54:05.440Z,2.95
2019-03-25T19:56:32.520Z,2.90
2019-03-25T20:01:49.673Z,2.94
2019-03-25T20:04:17.958Z,2.95
2019-03-25T20:06:50.107Z,2.95
2019-03-25T20:09:24.719Z,2.94
2019-03-25T20:14:33.313Z,2.92
2019-03-25T20:17:03.481Z,2.87
2019-03-25T20:19:30.657Z,2.87
2019-03-25T20:24:38.339Z,2.89
2019-03-25T20:27:05.440Z,2.90
2019-03-25T20:29:38.640Z,2.89
2019-03-25T20:32:07.835Z,2.85
2019-03-25T20:34:37.906Z,2.78
2019-03-25T20:37:09.696Z,2.74
2019-03-25T20:39:49.098Z,2.71
2019-03-25T20:42:17.290Z,2.75
2019-03-25T20:44:45.008Z,2.76
2019-03-25T20:47:12.293Z,2.75
2019-03-25T20:49:45.321Z,2.73
2019-03-25T20:52:12.611Z,2.74
2019-03-25T20:54:45.740Z,2.75
2019-03-25T20:57:12.802Z,2.73
2019-03-25T20:59:52.320Z,2.74
2019-03-25T21:02:21.609Z,2.76
2019-03-25T21:04:49.908Z,2.77
2019-03-25T21:07:19.208Z,2.79
2019-03-25T21:09:55.346Z,2.78
2019-03-25T21:12:24.879Z,2.81
2019-03-25T21:15:08.372Z,2.81
2019-03-25T21:17:40.223Z,2.81
2019-03-25T21:20:09.406Z,2.79
2019-03-25T21:22:38.960Z,2.81
2019-03-25T21:25:11.178Z,2.83
2019-03-25T21:30:17.755Z,2.81
2019-03-25T21:32:57.247Z,2.80
2019-03-25T21:35:16.866Z,2.82
2019-03-25T21:37:43.960Z,2.83
2019-03-25T21:40:11.390Z,2.89
2019-03-25T21:42:38.769Z,2.92
2019-03-25T21:45:06.056Z,2.93
2019-03-25T21:47:33.405Z,2.93
2019-03-25T21:50:00.547Z,2.93
2019-03-25T21:52:28.973Z,2.92
2019-03-25T21:54:55.992Z,2.89
2019-03-25T21:57:23.366Z,2.92
2019-03-25T21:59:50.393Z,2.89
2019-03-25T22:02:17.507Z,2.91
2019-03-25T22:04:44.558Z,2.90
2019-03-25T22:07:11.865Z,2.89
2019-03-25T22:09:38.907Z,2.91
2019-03-25T22:12:06.048Z,2.90
2019-03-25T22:14:33.101Z,2.87
2019-03-25T22:17:00.148Z,2.86
2019-03-25T22:19:27.200Z,2.84
2019-03-25T22:21:54.238Z,2.87
2019-03-25T22:24:21.573Z,2.86
2019-03-25T22:26:48.609Z,2.87
2019-03-25T22:29:15.658Z,2.86
2019-03-25T22:31:42.698Z,2.84
2019-03-25T22:34:09.750Z,2.79
2019-03-25T22:36:37.138Z,2.74
2019-03-25T22:39:04.185Z,2.73
2019-03-25T22:41:31.538Z,2.75
2019-03-25T22:43:58.883Z,2.80
2019-03-25T22:46:25.914Z,2.88
2019-03-25T22:48:52.969Z,2.91
2019-03-25T22:51:20.012Z,2.93
2019-03-25T22:53:47.380Z,2.95
2019-03-25T22:56:14.740Z,2.96
2019-03-25T22:58:42.084Z,2.99
2019-03-25T23:01:09.441Z,3.02
2019-03-25T23:03:39.443Z,3.04
2019-03-25T23:06:05.380Z,3.06
2019-03-25T23:08:32.429Z,3.07
2019-03-25T23:10:59.783Z,3.07
2019-03-25T23:13:26.835Z,3.11
2019-03-25T23:15:54.186Z,3.13
2019-03-25T23:18:21.242Z,3.13
2019-03-25T23:20:48.588Z,3.13
2019-03-25T23:23:15.626Z,3.12
2019-03-25T23:25:42.682Z,3.14
2019-03-25T23:28:09.964Z,3.14
2019-03-25T23:30:37.293Z,3.13
2019-03-25T23:33:04.331Z,3.05
2019-03-25T23:35:31.625Z,2.99
2019-03-25T23:37:58.741Z,2.96
2019-03-25T23:40:26.125Z,2.95
2019-03-25T23:42:53.129Z,2.94
2019-03-25T23:45:20.181Z,2.93
2019-03-25T23:47:47.217Z,2.91
2019-03-25T23:50:14.268Z,2.90
2019-03-25T23:52:41.296Z,2.88
2019-03-25T23:55:08.589Z,2.87
2019-03-25T23:57:35.947Z,2.87
